Time;durP1;ratioP1;P1;durP2;ratioP2;P2;SDS_P1;SDS_P2;PMS_P1;PMS_P2;Temp;Humidity;BMP_temperature;BMP_pressure;BME280_temperature;BME280_humidity;BME280_pressure;Samples;Min_cycle;Max_cycle;Signal;HPM_P1;HPM_P2
2021/03/20 00:00:19;;;;;;;0.60;0.57;;;;;;;6.07;100.00;101536.13;4992045;28;20062;-74
2021/03/20 00:03:23;;;;;;;1.25;0.77;;;;;;;6.11;100.00;101545.19;4990725;28;20069;-74
2021/03/20 00:06:33;;;;;;;0.45;0.40;;;;;;;6.10;100.00;101537.28;4955840;28;20091;-75
2021/03/20 00:09:37;;;;;;;0.65;0.50;;;;;;;6.07;100.00;101536.13;4950319;28;20061;-75
2021/03/20 00:12:43;;;;;;;0.68;0.63;;;;;;;6.07;100.00;101540.84;4950839;28;20089;-76
2021/03/20 00:15:47;;;;;;;4.13;1.33;;;;;;;6.03;100.00;101538.13;4972038;28;20073;-76
2021/03/20 00:18:50;;;;;;;3.25;1.15;;;;;;;6.05;100.00;101546.00;4949409;28;20057;-74
2021/03/20 00:21:54;;;;;;;3.17;0.47;;;;;;;6.05;100.00;101552.31;4960800;28;20065;-75
2021/03/20 00:24:58;;;;;;;2.08;0.82;;;;;;;6.07;100.00;101555.47;4969838;28;20080;-75
2021/03/20 00:28:03;;;;;;;0.40;0.40;;;;;;;6.09;100.00;101553.09;4970415;28;20775;-75
2021/03/20 00:31:10;;;;;;;1.48;1.02;;;;;;;6.10;100.00;101562.97;4970543;28;20167;-76
2021/03/20 00:34:13;;;;;;;1.08;0.88;;;;;;;6.10;100.00;101571.28;4970086;28;20060;-75
2021/03/20 00:37:17;;;;;;;2.28;0.80;;;;;;;6.10;100.00;101564.94;4971061;28;20061;-76
2021/03/20 00:40:27;;;;;;;3.63;1.52;;;;;;;6.08;100.00;101562.59;4972531;28;20254;-75
2021/03/20 00:43:31;;;;;;;3.40;1.25;;;;;;;6.08;100.00;101557.06;4975296;28;20072;-74
2021/03/20 00:46:35;;;;;;;1.67;0.77;;;;;;;6.06;100.00;101564.94;4975577;28;20060;-75
2021/03/20 00:49:39;;;;;;;2.55;1.05;;;;;;;6.07;100.00;101560.22;4975626;28;20061;-75
2021/03/20 00:52:42;;;;;;;6.80;1.63;;;;;;;6.07;100.00;101555.47;4974662;28;20065;-76
2021/03/20 00:55:47;;;;;;;4.38;1.25;;;;;;;6.11;100.00;101567.31;4971894;28;20069;-76
2021/03/20 00:58:51;;;;;;;2.63;1.13;;;;;;;6.13;100.00;101563.38;4972804;28;20065;-76
2021/03/20 01:01:55;;;;;;;2.25;0.77;;;;;;;6.13;100.00;101557.84;4972502;28;20061;-76
2021/03/20 01:04:58;;;;;;;4.90;1.40;;;;;;;6.11;100.00;101556.25;4971133;28;20057;-76
2021/03/20 01:08:02;;;;;;;1.42;0.93;;;;;;;6.13;100.00;101559.38;4967072;28;20089;-78
2021/03/20 01:11:09;;;;;;;1.00;0.70;;;;;;;6.13;100.00;101553.84;4972942;28;20848;-76
2021/03/20 01:14:12;;;;;;;0.68;0.50;;;;;;;6.13;100.00;101555.06;4972789;28;20471;-77
2021/03/20 01:17:16;;;;;;;3.00;0.52;;;;;;;6.11;100.00;101549.91;4971088;28;20088;-76
2021/03/20 01:20:21;;;;;;;6.05;1.35;;;;;;;6.10;100.00;101560.22;4971327;28;21130;-76
2021/03/20 01:23:25;;;;;;;1.15;0.50;;;;;;;6.09;100.00;101558.63;4963747;28;20608;-76
2021/03/20 01:26:28;;;;;;;5.95;1.88;;;;;;;6.08;100.00;101562.59;4953924;28;20866;-78
2021/03/20 01:29:32;;;;;;;3.85;1.73;;;;;;;6.07;100.00;101563.78;4952932;28;20061;-76
2021/03/20 01:32:36;;;;;;;1.48;0.95;;;;;;;6.08;100.00;101561.81;4975578;28;20247;-77
2021/03/20 01:35:40;;;;;;;2.38;0.90;;;;;;;6.06;100.00;101561.41;4954909;28;20631;-75
2021/03/20 01:38:44;;;;;;;3.20;0.63;;;;;;;6.04;100.00;101555.50;4974226;28;20046;-75
2021/03/20 01:41:47;;;;;;;1.08;0.55;;;;;;;6.05;100.00;101555.09;4971121;28;20062;-75
2021/03/20 01:45:16;;;;;;;2.38;1.27;;;;;;;6.05;100.00;101546.00;4957534;28;20507;-75
2021/03/20 01:48:35;;;;;;;0.88;0.65;;;;;;;6.04;100.00;101545.22;4956567;28;20062;-75
2021/03/20 01:51:39;;;;;;;4.55;1.23;;;;;;;6.05;100.00;101555.09;4953005;28;20259;-75
2021/03/20 01:54:48;;;;;;;5.47;0.93;;;;;;;6.05;100.00;101549.56;4952499;28;20566;-75
2021/03/20 01:57:59;;;;;;;2.10;0.93;;;;;;;6.05;100.00;101546.78;4943283;28;20078;-75
2021/03/20 02:01:09;;;;;;;1.58;0.90;;;;;;;6.04;100.00;101542.44;4943339;28;20078;-76
2021/03/20 02:04:13;;;;;;;6.22;1.60;;;;;;;6.03;100.00;101542.84;4933596;28;20358;-77
2021/03/20 02:07:16;;;;;;;3.70;1.15;;;;;;;6.05;100.00;101546.00;4931205;28;20721;-79
2021/03/20 02:10:23;;;;;;;3.97;1.58;;;;;;;6.06;100.00;101550.34;4932481;28;20053;-75
2021/03/20 02:13:44;;;;;;;2.33;1.08;;;;;;;6.05;100.00;101546.00;4932577;28;20053;-76
2021/03/20 02:16:47;;;;;;;6.03;1.65;;;;;;;6.07;100.00;101543.63;4944987;28;20884;-76
2021/03/20 02:20:08;;;;;;;5.72;1.80;;;;;;;6.06;100.00;101542.81;4940445;28;20081;-76
2021/03/20 02:23:33;;;;;;;6.82;2.03;;;;;;;6.07;100.00;101544.41;4930240;28;20085;-77
2021/03/20 02:27:13;;;;;;;4.28;1.48;;;;;;;6.06;100.00;101542.81;4931138;28;20058;-76
2021/03/20 02:30:54;;;;;;;5.28;1.20;;;;;;;6.06;100.00;101542.06;4932938;28;20065;-79
2021/03/20 02:34:35;;;;;;;2.03;1.80;;;;;;;6.09;100.00;101541.25;4932568;28;20070;-76
2021/03/20 02:37:57;;;;;;;10.70;2.00;;;;;;;6.08;100.00;101534.94;4931359;28;20058;-76
2021/03/20 02:41:18;;;;;;;7.55;1.70;;;;;;;6.05;100.00;101534.94;4939283;28;21087;-76
2021/03/20 02:44:30;;;;;;;4.30;2.33;;;;;;;6.09;100.00;101535.72;4931437;28;20062;-76
2021/03/20 02:47:48;;;;;;;7.05;2.60;;;;;;;6.10;100.00;101534.53;4932764;28;20058;-76
2021/03/20 02:51:02;;;;;;;3.80;1.85;;;;;;;6.08;100.00;101523.88;4939859;28;20054;-76
2021/03/20 02:54:12;;;;;;;6.00;1.85;;;;;;;6.09;100.00;101530.97;4933846;28;20051;-75
2021/03/20 02:57:29;;;;;;;3.65;1.73;;;;;;;6.09;100.00;101521.88;4932001;28;20066;-75
2021/03/20 03:00:41;;;;;;;4.95;2.40;;;;;;;6.10;100.00;101526.22;4930563;28;20186;-76
2021/03/20 03:03:47;;;;;;;3.92;1.38;;;;;;;6.08;100.00;101528.63;4930436;28;20050;-76
2021/03/20 03:07:16;;;;;;;6.10;1.80;;;;;;;6.08;100.00;101521.13;4929576;28;20069;-76
2021/03/20 03:10:40;;;;;;;3.03;1.70;;;;;;;6.06;100.00;101520.69;4929816;28;20066;-76
2021/03/20 03:13:50;;;;;;;8.30;2.20;;;;;;;6.06;100.00;101515.16;4931140;28;20791;-76
2021/03/20 03:16:59;;;;;;;6.07;1.77;;;;;;;6.06;100.00;101515.16;4930844;28;20085;-75
2021/03/20 03:20:19;;;;;;;4.22;1.55;;;;;;;6.05;100.00;101507.28;4930927;28;20070;-75
2021/03/20 03:23:26;;;;;;;4.97;1.95;;;;;;;6.07;100.00;101516.75;4947046;28;20983;-74
2021/03/20 03:26:37;;;;;;;8.57;1.95;;;;;;;6.09;100.00;101511.59;4949850;28;21207;-75
2021/03/20 03:29:42;;;;;;;5.03;2.25;;;;;;;6.09;100.00;101514.38;4950054;28;20061;-76
2021/03/20 03:33:10;;;;;;;2.42;1.45;;;;;;;6.09;100.00;101519.13;4949201;28;20137;-76
2021/03/20 03:36:17;;;;;;;6.72;3.13;;;;;;;6.07;100.00;101514.00;4950071;28;20709;-75
2021/03/20 03:39:29;;;;;;;5.72;2.47;;;;;;;6.06;100.00;101509.63;4948906;28;20307;-76
2021/03/20 03:42:33;;;;;;;4.90;1.33;;;;;;;6.07;100.00;101504.91;4948450;28;20077;-74
2021/03/20 03:45:37;;;;;;;5.78;1.95;;;;;;;6.06;100.00;101497.81;4949442;28;20935;-75
2021/03/20 03:48:40;;;;;;;7.78;3.47;;;;;;;6.06;100.00;101495.81;4950543;28;20865;-75
2021/03/20 03:51:45;;;;;;;3.80;1.67;;;;;;;6.05;100.00;101497.03;4949861;28;20147;-75
2021/03/20 03:54:49;;;;;;;11.63;2.60;;;;;;;6.05;100.00;101497.03;4949734;28;20084;-75
2021/03/20 03:58:02;;;;;;;4.53;1.90;;;;;;;6.04;100.00;101495.44;4949843;28;20062;-74
2021/03/20 04:01:32;;;;;;;8.45;3.00;;;;;;;6.01;100.00;101501.78;4950412;28;20061;-75
2021/03/20 04:04:44;;;;;;;7.90;2.28;;;;;;;6.01;100.00;101496.25;4949100;28;20061;-77
2021/03/20 04:08:12;;;;;;;8.20;2.90;;;;;;;6.03;100.00;101493.09;4949301;28;20057;-76
2021/03/20 04:11:32;;;;;;;5.43;1.92;;;;;;;6.01;100.00;101482.44;4948279;28;20093;-75
2021/03/20 04:14:52;;;;;;;10.32;3.25;;;;;;;5.98;100.00;101480.47;4943300;28;20078;-75
2021/03/20 04:18:10;;;;;;;7.65;2.50;;;;;;;5.99;100.00;101479.28;4953807;28;20069;-75
2021/03/20 04:21:51;;;;;;;6.85;2.47;;;;;;;6.00;100.00;101478.06;4953927;28;20080;-75
2021/03/20 04:25:22;;;;;;;2.33;1.65;;;;;;;5.99;100.00;101476.53;4962160;28;20085;-76
2021/03/20 04:28:53;;;;;;;7.78;2.10;;;;;;;5.99;100.00;101471.00;4963160;28;20072;-75
2021/03/20 04:32:18;;;;;;;3.85;1.83;;;;;;;5.99;100.00;101471.00;5013549;28;20080;-74
2021/03/20 04:35:28;;;;;;;6.05;2.40;;;;;;;5.99;100.00;101465.47;5012847;28;20065;-75
2021/03/20 04:38:32;;;;;;;10.32;1.52;;;;;;;5.98;100.00;101469.41;5012783;28;20061;-75
2021/03/20 04:41:37;;;;;;;6.18;2.45;;;;;;;5.99;100.00;101482.06;5013543;28;20057;-74
2021/03/20 04:44:40;;;;;;;6.35;2.25;;;;;;;6.00;100.00;101478.06;5012743;28;20065;-75
2021/03/20 04:47:44;;;;;;;6.57;1.08;;;;;;;6.01;100.00;101476.91;5012514;28;20085;-74
2021/03/20 04:50:54;;;;;;;10.57;3.53;;;;;;;6.02;100.00;101492.28;5013373;28;20661;-75
2021/03/20 04:54:06;;;;;;;8.05;3.40;;;;;;;6.04;100.00;101489.13;5013042;28;20061;-75
2021/03/20 04:57:27;;;;;;;12.82;1.92;;;;;;;6.03;100.00;101493.09;5011923;28;20420;-74
2021/03/20 05:00:33;;;;;;;9.70;2.05;;;;;;;6.03;100.00;101499.41;5010939;28;20061;-75
2021/03/20 05:03:43;;;;;;;10.85;2.95;;;;;;;6.03;100.00;101499.41;5012763;28;20069;-75
2021/03/20 05:06:49;;;;;;;9.73;3.20;;;;;;;6.04;100.00;101500.97;5012860;28;20077;-75
2021/03/20 05:10:02;;;;;;;4.15;1.98;;;;;;;6.04;100.00;101500.19;5013098;28;20062;-74
2021/03/20 05:13:24;;;;;;;8.95;2.70;;;;;;;6.02;100.00;101495.06;5007368;28;20428;-75
2021/03/20 05:16:35;;;;;;;5.90;2.28;;;;;;;6.03;100.00;101504.94;5011942;28;20060;-75
2021/03/20 05:19:38;;;;;;;8.20;1.92;;;;;;;6.02;100.00;101497.81;5012500;28;20061;-75
2021/03/20 05:22:42;;;;;;;8.77;2.65;;;;;;;6.02;100.00;101492.28;5012442;28;20069;-75
2021/03/20 05:25:46;;;;;;;6.53;1.17;;;;;;;6.03;100.00;101493.88;5012240;28;20077;-74
2021/03/20 05:28:49;;;;;;;9.10;1.95;;;;;;;6.05;100.00;101497.03;5012010;28;20065;-75
2021/03/20 05:31:54;;;;;;;11.20;2.58;;;;;;;6.06;100.00;101490.28;5012387;28;20061;-75
2021/03/20 05:34:59;;;;;;;5.20;2.40;;;;;;;6.06;100.00;101493.03;5012496;28;20527;-74
2021/03/20 05:38:02;;;;;;;6.32;1.95;;;;;;;6.08;100.00;101496.22;5012125;28;20057;-75
2021/03/20 05:41:26;;;;;;;9.95;3.25;;;;;;;6.05;100.00;101493.47;5012175;28;20076;-75
2021/03/20 05:44:59;;;;;;;4.88;2.35;;;;;;;6.04;100.00;101495.44;5011716;28;20519;-75
2021/03/20 05:48:21;;;;;;;8.32;3.33;;;;;;;6.04;100.00;101502.97;5010842;28;20064;-74
2021/03/20 05:51:52;;;;;;;6.35;2.88;;;;;;;6.03;100.00;101499.41;5011069;28;20077;-74
2021/03/20 05:55:30;;;;;;;10.95;3.15;;;;;;;6.02;100.00;101503.34;5012213;28;20534;-74
2021/03/20 05:58:47;;;;;;;5.95;2.08;;;;;;;6.01;100.00;101501.78;5011061;28;20061;-75
2021/03/20 06:02:02;;;;;;;9.65;2.83;;;;;;;6.01;100.00;101510.09;5010771;28;20412;-75
2021/03/20 06:05:09;;;;;;;8.02;1.63;;;;;;;5.99;100.00;101503.38;5012119;28;20538;-75
2021/03/20 06:08:30;;;;;;;8.00;2.88;;;;;;;5.99;100.00;101504.19;5016315;28;20050;-75
2021/03/20 06:11:40;;;;;;;12.07;3.77;;;;;;;6.01;100.00;101501.78;5015937;28;20054;-74
2021/03/20 06:15:07;;;;;;;14.63;2.55;;;;;;;6.01;100.00;101501.78;5017405;28;20306;-74
2021/03/20 06:18:35;;;;;;;7.30;2.40;;;;;;;6.01;100.00;101495.47;5020240;28;20066;-75
2021/03/20 06:22:16;;;;;;;11.77;2.22;;;;;;;6.01;100.00;101496.25;5016981;28;20072;-74
2021/03/20 06:25:52;;;;;;;6.28;2.38;;;;;;;6.02;100.00;101502.59;5014776;28;20519;-74
2021/03/20 06:29:30;;;;;;;4.88;1.65;;;;;;;6.01;100.00;101512.84;5015995;28;20057;-74
2021/03/20 06:32:40;;;;;;;7.80;2.35;;;;;;;6.01;100.00;101507.31;4989946;28;20061;-75
2021/03/20 06:35:52;;;;;;;6.20;1.95;;;;;;;6.02;100.00;101502.59;5004075;28;20072;-74
2021/03/20 06:38:57;;;;;;;12.60;3.13;;;;;;;6.04;100.00;101503.72;5011094;28;20065;-74
2021/03/20 06:42:17;;;;;;;5.13;1.92;;;;;;;6.03;100.00;101502.16;5012316;28;20112;-74
2021/03/20 06:45:28;;;;;;;8.93;2.17;;;;;;;6.04;100.00;101506.50;5013576;28;20057;-75
2021/03/20 06:48:32;;;;;;;4.47;2.20;;;;;;;6.04;100.00;101503.72;5014163;28;20060;-73
2021/03/20 06:51:35;;;;;;;8.18;2.30;;;;;;;6.07;100.00;101500.16;5014856;28;20056;-74
2021/03/20 06:54:39;;;;;;;7.13;2.65;;;;;;;6.07;100.00;101502.94;5013680;28;20065;-74
2021/03/20 06:57:42;;;;;;;6.38;2.35;;;;;;;6.08;100.00;101500.97;5016143;28;20064;-75
2021/03/20 07:00:47;;;;;;;3.58;1.58;;;;;;;6.09;100.00;101491.47;5018881;28;20053;-75
2021/03/20 07:04:12;;;;;;;10.50;2.63;;;;;;;6.12;100.00;101504.47;5016887;28;20057;-75
2021/03/20 07:07:53;;;;;;;8.40;2.55;;;;;;;6.16;100.00;101496.16;5013737;28;20069;-74
2021/03/20 07:10:57;;;;;;;8.70;1.85;;;;;;;6.18;100.00;101497.31;5013255;28;20069;-75
2021/03/20 07:14:07;;;;;;;6.90;3.00;;;;;;;6.19;100.00;101496.16;5012515;28;20424;-74
2021/03/20 07:17:25;;;;;;;5.55;2.42;;;;;;;6.21;100.00;101498.50;5013708;28;20543;-74
2021/03/20 07:20:40;;;;;;;10.95;2.42;;;;;;;6.25;100.00;101494.53;4991513;28;20061;-74
2021/03/20 07:23:56;;;;;;;7.25;3.20;;;;;;;6.28;100.00;101498.47;4971843;28;20535;-73
2021/03/20 07:27:06;;;;;;;5.30;1.95;;;;;;;6.32;100.00;101493.69;4971326;28;20522;-74
2021/03/20 07:30:31;;;;;;;5.35;1.67;;;;;;;6.36;100.00;101494.44;4972244;28;20086;-73
2021/03/20 07:33:40;;;;;;;7.75;2.35;;;;;;;6.38;100.00;101497.56;4971855;28;20062;-74
2021/03/20 07:36:43;;;;;;;8.07;2.28;;;;;;;6.41;100.00;101497.53;4972609;28;20069;-73
2021/03/20 07:39:55;;;;;;;10.23;2.03;;;;;;;6.44;100.00;101479.34;4971958;28;20085;-74
2021/03/20 07:43:20;;;;;;;11.63;3.33;;;;;;;6.50;100.00;101491.53;4971510;28;20057;-74
2021/03/20 07:46:25;;;;;;;8.88;3.33;;;;;;;6.54;100.00;101490.31;4971519;28;20133;-73
2021/03/20 07:49:32;;;;;;;10.85;1.92;;;;;;;6.59;100.00;101492.66;4970717;28;20505;-74
2021/03/20 07:52:36;;;;;;;16.63;3.88;;;;;;;6.63;100.00;101493.41;4973064;28;20058;-74
2021/03/20 07:56:03;;;;;;;22.60;3.80;;;;;;;6.67;100.00;101498.94;4975495;28;20531;-75
2021/03/20 07:59:29;;;;;;;8.38;1.17;;;;;;;6.71;100.00;101499.69;4975909;28;20517;-74
2021/03/20 08:02:39;;;;;;;8.40;1.92;;;;;;;6.76;100.00;101496.47;4974855;28;20058;-73
2021/03/20 08:05:45;;;;;;;15.60;2.63;;;;;;;6.81;100.00;101493.25;4986911;28;20069;-74
2021/03/20 08:08:48;;;;;;;9.85;2.72;;;;;;;6.85;100.00;101499.53;4989907;28;20051;-74
2021/03/20 08:12:12;;;;;;;11.73;2.67;;;;;;;6.88;100.00;101501.50;4975336;28;20066;-74
2021/03/20 08:15:22;;;;;;;4.22;1.60;;;;;;;6.92;100.00;101505.03;4975137;28;20413;-76
2021/03/20 08:18:39;;;;;;;14.05;3.30;;;;;;;6.94;100.00;101508.16;4975518;28;20613;-76
2021/03/20 08:22:07;;;;;;;12.65;3.25;;;;;;;6.99;100.00;101499.41;5004343;28;20058;-73
2021/03/20 08:25:47;;;;;;;7.65;1.95;;;;;;;7.06;100.00;101509.63;5015653;28;20064;-76
2021/03/20 08:29:06;;;;;;;13.88;4.03;;;;;;;7.08;100.00;101519.09;5013778;28;20057;-75
2021/03/20 08:32:31;;;;;;;16.85;3.22;;;;;;;7.13;100.00;101515.88;5016422;28;20076;-74
2021/03/20 08:36:01;;;;;;;10.80;2.17;;;;;;;7.19;100.00;101514.22;5011797;28;20061;-75
2021/03/20 08:39:27;;;;;;;7.47;2.20;;;;;;;7.20;100.00;101524.13;5013106;28;20068;-75
2021/03/20 08:42:49;;;;;;;12.23;2.60;;;;;;;7.22;100.00;101523.69;5010768;28;20053;-74
2021/03/20 08:46:14;;;;;;;18.65;2.97;;;;;;;7.26;100.00;101532.75;5014492;28;20069;-75
2021/03/20 08:49:45;;;;;;;8.82;2.35;;;;;;;7.28;100.00;101520.06;4996634;28;20065;-75
2021/03/20 08:52:53;;;;;;;15.30;4.28;;;;;;;7.30;100.00;101514.91;5013787;28;20073;-76
2021/03/20 08:56:34;;;;;;;12.45;3.95;;;;;;;7.37;100.00;101517.59;5005898;28;20072;-75
2021/03/20 08:59:47;;;;;;;14.80;5.60;;;;;;;7.39;100.00;101515.19;5013597;28;20177;-74
2021/03/20 09:03:00;;;;;;;21.60;4.82;;;;;;;7.45;100.00;101521.09;5013284;28;20447;-76
2021/03/20 09:06:21;;;;;;;29.73;5.22;;;;;;;7.49;100.00;101519.81;5005989;28;20064;-75
2021/03/20 09:09:27;;;;;;;22.77;5.95;;;;;;;7.58;100.00;101516.56;5011953;28;20073;-75
2021/03/20 09:12:35;;;;;;;21.75;5.18;;;;;;;7.67;100.00;101507.75;5011709;28;20143;-75
2021/03/20 09:15:43;;;;;;;15.45;4.53;;;;;;;7.72;100.00;101502.53;5013360;28;20424;-76
2021/03/20 09:18:47;;;;;;;15.00;4.75;;;;;;;7.79;100.00;101507.97;5011151;28;20061;-75
2021/03/20 09:21:58;;;;;;;16.60;3.97;;;;;;;7.87;100.00;101508.66;5011161;28;20406;-75
2021/03/20 09:25:11;;;;;;;12.05;4.53;;;;;;;7.92;100.00;101508.22;5012354;28;20661;-74
2021/03/20 09:28:27;;;;;;;14.45;2.85;;;;;;;8.13;100.00;101510.66;5012308;28;20065;-76
2021/03/20 09:31:31;;;;;;;16.10;5.20;;;;;;;8.45;100.00;101504.66;5011574;28;20057;-76
2021/03/20 09:34:44;;;;;;;15.48;3.28;;;;;;;8.65;100.00;101499.97;5012317;28;20065;-75
2021/03/20 09:37:52;;;;;;;15.98;4.22;;;;;;;8.66;100.00;101499.56;5010706;28;20057;-75
2021/03/20 09:40:56;;;;;;;21.67;5.90;;;;;;;8.58;100.00;101502.84;5011840;28;20073;-75
2021/03/20 09:44:02;;;;;;;16.33;4.65;;;;;;;8.68;100.00;101505.47;5011818;28;20412;-75
2021/03/20 09:47:32;;;;;;;11.80;4.45;;;;;;;8.88;100.00;101500.75;5011991;28;20065;-76
2021/03/20 09:50:37;;;;;;;14.80;4.43;;;;;;;9.02;100.00;101502.50;5010069;28;20045;-76
2021/03/20 09:53:41;;;;;;;9.95;3.42;;;;;;;9.12;100.00;101499.50;5011725;28;20068;-76
2021/03/20 09:56:45;;;;;;;15.07;4.10;;;;;;;9.25;100.00;101496.13;5011387;28;20404;-76
2021/03/20 09:59:50;;;;;;;13.60;3.45;;;;;;;9.40;100.00;101491.84;5034027;28;20412;-77
2021/03/20 10:02:54;;;;;;;13.02;3.50;;;;;;;9.51;100.00;101487.63;5012578;28;20064;-78
2021/03/20 10:06:16;;;;;;;16.50;4.40;;;;;;;9.70;100.00;101491.63;5011686;28;20065;-76
2021/03/20 10:09:22;;;;;;;11.15;3.97;;;;;;;9.85;100.00;101490.09;5009145;28;20061;-77
2021/03/20 10:12:44;;;;;;;12.93;3.83;;;;;;;9.95;100.00;101469.59;5033296;28;20057;-76
2021/03/20 10:15:58;;;;;;;9.48;3.78;;;;;;;10.01;100.00;101475.41;5010965;28;20057;-77
2021/03/20 10:19:11;;;;;;;20.00;4.25;;;;;;;10.04;100.00;101478.13;5011033;28;20064;-76
2021/03/20 10:22:47;;;;;;;14.02;4.47;;;;;;;10.05;100.00;101481.72;5005964;28;20054;-77
2021/03/20 10:25:54;;;;;;;14.10;4.00;;;;;;;9.93;100.00;101474.81;5010731;28;20054;-76
2021/03/20 10:28:57;;;;;;;8.30;2.38;;;;;;;9.86;100.00;101481.31;5010831;28;20061;-77
2021/03/20 10:32:04;;;;;;;13.15;4.15;;;;;;;9.77;100.00;101478.31;5011855;28;20057;-77
2021/03/20 10:35:09;;;;;;;13.88;4.22;;;;;;;9.72;100.00;101475.28;5010898;28;20662;-77
2021/03/20 10:38:16;;;;;;;13.27;4.40;;;;;;;9.62;100.00;101473.50;5011140;28;20057;-72
2021/03/20 10:41:41;;;;;;;19.98;3.53;;;;;;;9.64;100.00;101473.84;5010277;28;20061;-74
2021/03/20 10:44:47;;;;;;;11.90;3.78;;;;;;;9.64;100.00;101459.94;5009990;28;20126;-73
2021/03/20 10:47:59;;;;;;;13.25;4.72;;;;;;;9.57;100.00;101474.03;5010515;28;20412;-73
2021/03/20 10:51:08;;;;;;;17.20;4.45;;;;;;;9.52;100.00;101477.28;5009326;28;20110;-74
2021/03/20 10:54:17;;;;;;;9.73;3.28;;;;;;;9.46;100.00;101463.13;5010290;28;20052;-73
2021/03/20 10:57:25;;;;;;;13.32;3.95;;;;;;;9.42;100.00;101464.41;5009771;28;20427;-74
2021/03/20 11:00:49;;;;;;;8.50;2.08;;;;;;;9.41;100.00;101466.38;5012686;28;20052;-74
2021/03/20 11:03:53;;;;;;;15.82;4.60;;;;;;;9.35;100.00;101456.19;5012025;28;20522;-74
2021/03/20 11:06:59;;;;;;;21.23;5.35;;;;;;;9.28;100.00;101461.91;5010547;28;20061;-74
2021/03/20 11:10:09;;;;;;;12.45;2.70;;;;;;;9.39;100.00;101462.47;5010236;28;20165;-75
2021/03/20 11:13:15;;;;;;;10.32;4.13;;;;;;;9.43;100.00;101457.63;5009743;28;20061;-75
2021/03/20 11:16:25;;;;;;;15.13;4.57;;;;;;;9.58;100.00;101453.31;5010774;28;20061;-75
2021/03/20 11:19:35;;;;;;;12.50;4.13;;;;;;;9.72;100.00;101436.34;5010743;28;20519;-74
2021/03/20 11:22:40;;;;;;;10.40;3.90;;;;;;;9.74;100.00;101434.69;5010633;28;20511;-76
2021/03/20 11:25:44;;;;;;;13.38;3.05;;;;;;;9.71;100.00;101429.19;5009992;28;20077;-75
2021/03/20 11:28:48;;;;;;;9.95;3.30;;;;;;;9.75;100.00;101424.34;5010613;28;20511;-75
2021/03/20 11:31:54;;;;;;;11.60;3.50;;;;;;;9.83;100.00;101425.75;5010536;28;20507;-74
2021/03/20 11:35:19;;;;;;;13.77;4.03;;;;;;;9.79;100.00;101422.25;5010372;28;20073;-75
2021/03/20 11:38:23;;;;;;;18.85;3.72;;;;;;;9.82;100.00;101416.63;5008344;28;20068;-75
2021/03/20 11:41:35;;;;;;;9.50;2.85;;;;;;;9.92;100.00;101412.00;5010208;28;20482;-74
2021/03/20 11:44:46;;;;;;;15.48;4.47;;;;;;;10.15;100.00;101413.91;5010140;28;20065;-75
2021/03/20 11:47:52;;;;;;;11.17;4.33;;;;;;;10.41;100.00;101408.06;5010608;28;20058;-75
2021/03/20 11:50:59;;;;;;;10.20;4.07;;;;;;;10.68;100.00;101402.97;5009766;28;20049;-76
2021/03/20 11:54:20;;;;;;;12.98;4.43;;;;;;;10.96;100.00;101395.06;5010408;28;20046;-76
2021/03/20 11:57:29;;;;;;;6.10;3.27;;;;;;;11.14;100.00;101395.31;5013344;28;20416;-76
2021/03/20 12:00:40;;;;;;;9.52;3.50;;;;;;;11.31;100.00;101388.44;4999371;28;20065;-75
2021/03/20 12:03:43;;;;;;;8.50;3.75;;;;;;;11.18;100.00;101382.06;4993142;28;20523;-76
2021/03/20 12:06:47;;;;;;;12.55;2.63;;;;;;;11.06;100.00;101382.81;4994497;28;20065;-76
2021/03/20 12:09:53;;;;;;;6.07;2.05;;;;;;;11.03;100.00;101372.53;4990668;28;20050;-75
2021/03/20 12:12:57;;;;;;;11.93;4.60;;;;;;;11.02;100.00;101377.31;4989484;28;20065;-75
2021/03/20 12:16:00;;;;;;;7.75;3.17;;;;;;;11.31;100.00;101371.72;4991108;28;20440;-75
2021/03/20 12:19:15;;;;;;;9.15;4.55;;;;;;;11.44;100.00;101364.94;4990092;28;20082;-75
2021/03/20 12:22:30;;;;;;;10.43;3.22;;;;;;;11.31;100.00;101375.28;5004317;28;20061;-75
2021/03/20 12:25:46;;;;;;;6.57;4.18;;;;;;;11.19;100.00;101358.53;5010168;28;20054;-76
2021/03/20 12:29:09;;;;;;;5.32;2.60;;;;;;;11.15;100.00;101363.44;5004003;28;20060;-75
2021/03/20 12:32:34;;;;;;;8.10;2.58;;;;;;;11.16;100.00;101348.25;5010114;28;20527;-76
2021/03/20 12:35:46;;;;;;;6.50;2.17;;;;;;;11.10;100.00;101350.03;5012511;28;20077;-76
2021/03/20 12:38:49;;;;;;;7.20;3.60;;;;;;;10.99;100.00;101344.00;5011966;28;20061;-75
2021/03/20 12:41:56;;;;;;;8.85;2.50;;;;;;;10.98;100.00;101342.44;5016134;28;20442;-76
2021/03/20 12:44:59;;;;;;;5.18;2.38;;;;;;;10.97;100.00;101346.44;5020933;28;20056;-75
2021/03/20 12:48:03;;;;;;;5.65;3.03;;;;;;;10.98;100.00;101342.44;5019560;28;20072;-76
2021/03/20 12:51:18;;;;;;;2.83;1.73;;;;;;;10.97;100.00;101330.50;5015071;28;20046;-76
2021/03/20 12:54:28;;;;;;;5.63;1.90;;;;;;;11.04;100.00;101335.09;5016034;28;20064;-74
2021/03/20 12:57:34;;;;;;;4.63;2.33;;;;;;;10.95;100.00;101332.16;5013974;28;20061;-76
2021/03/20 13:00:37;;;;;;;3.80;1.02;;;;;;;10.85;100.00;101324.91;5015339;28;20061;-76
2021/03/20 13:03:41;;;;;;;2.90;1.30;;;;;;;10.88;100.00;101332.34;5014178;28;20065;-76
2021/03/20 13:06:44;;;;;;;1.48;1.02;;;;;;;10.81;100.00;101315.84;5014703;28;20065;-76
2021/03/20 13:09:48;;;;;;;3.53;1.83;;;;;;;10.81;100.00;101321.41;5015139;28;20053;-76
2021/03/20 13:12:53;;;;;;;2.38;1.65;;;;;;;10.60;100.00;101318.00;5018765;28;20057;-75
2021/03/20 13:15:56;;;;;;;2.92;1.35;;;;;;;10.44;100.00;101309.69;5016151;28;20057;-75
2021/03/20 13:19:00;;;;;;;2.53;1.75;;;;;;;10.33;100.00;101311.22;5013428;28;20057;-76
2021/03/20 13:22:04;;;;;;;3.13;1.30;;;;;;;10.25;100.00;101313.41;5013265;28;20068;-75
2021/03/20 13:25:09;;;;;;;2.17;0.88;;;;;;;10.10;100.00;101306.59;5013568;28;20076;-75
2021/03/20 13:28:14;;;;;;;3.70;1.45;;;;;;;10.08;100.00;101313.81;5013333;28;20080;-75
2021/03/20 13:31:17;;;;;;;17.50;2.28;;;;;;;10.06;100.00;101311.47;5016302;28;20081;-75
2021/03/20 13:34:21;;;;;;;5.07;1.52;;;;;;;10.53;100.00;101317.41;5018522;28;20054;-77
2021/03/20 13:37:25;;;;;;;3.67;1.35;;;;;;;10.94;100.00;101309.06;5021882;28;20072;-76
2021/03/20 13:40:30;;;;;;;3.40;1.92;;;;;;;11.11;100.00;101318.91;5021313;28;20061;-76
2021/03/20 13:43:34;;;;;;;1.77;0.85;;;;;;;11.13;100.00;101307.34;5017971;28;20057;-76
2021/03/20 13:46:37;;;;;;;1.50;0.80;;;;;;;11.27;100.00;101301.31;5021089;28;20069;-76
2021/03/20 13:49:41;;;;;;;0.80;0.80;;;;;;;11.22;100.00;101301.88;5017678;28;20057;-75
2021/03/20 13:52:44;;;;;;;3.53;1.67;;;;;;;11.02;100.00;101301.28;5017274;28;20570;-76
2021/03/20 13:55:51;;;;;;;4.82;0.82;;;;;;;10.69;100.00;101306.22;5015575;28;20061;-76
2021/03/20 13:58:55;;;;;;;1.42;0.45;;;;;;;10.59;100.00;101294.16;5014637;28;20551;-75
2021/03/20 14:01:58;;;;;;;2.28;0.43;;;;;;;10.51;100.00;101292.78;5017287;28;20064;-75
2021/03/20 14:05:03;;;;;;;4.07;1.25;;;;;;;10.30;100.00;101304.53;5016887;28;20061;-75
2021/03/20 14:08:07;;;;;;;2.60;1.35;;;;;;;10.05;100.00;101298.78;5018141;28;20735;-76
2021/03/20 14:11:12;;;;;;;2.70;1.00;;;;;;;9.93;100.00;101300.28;5018117;28;20065;-76
2021/03/20 14:14:15;;;;;;;2.15;1.20;;;;;;;9.84;100.00;101304.88;5017983;28;20510;-76
2021/03/20 14:17:19;;;;;;;3.25;1.25;;;;;;;9.73;100.00;101299.59;5015955;28;20057;-76
2021/03/20 14:20:28;;;;;;;6.38;2.17;;;;;;;9.87;100.00;101295.69;5016470;28;20073;-75
2021/03/20 14:23:32;;;;;;;10.25;2.08;;;;;;;9.75;100.00;101293.56;4992782;28;20496;-75
2021/03/20 14:26:35;;;;;;;4.60;1.33;;;;;;;9.66;100.00;101296.19;4994803;28;20109;-75
2021/03/20 14:29:39;;;;;;;10.70;2.75;;;;;;;9.63;100.00;101310.97;4992928;28;20512;-76
2021/03/20 14:32:43;;;;;;;2.22;1.20;;;;;;;9.65;100.00;101308.53;4993415;28;20068;-75
2021/03/20 14:35:47;;;;;;;4.05;1.65;;;;;;;9.72;100.00;101294.47;4993663;28;20062;-75
2021/03/20 14:38:51;;;;;;;3.55;1.30;;;;;;;9.72;100.00;101292.44;4993138;28;20093;-72
2021/03/20 14:41:54;;;;;;;3.85;1.30;;;;;;;9.71;100.00;101292.88;4991517;28;20062;-74
2021/03/20 14:44:57;;;;;;;4.75;1.25;;;;;;;9.65;100.00;101291.84;4989884;28;20053;-74